createdAt,value
2023-02-27T00:02:11.894Z,30.30
2023-02-27T00:04:38.545Z,28.45
2023-02-27T00:07:05.192Z,27.20
2023-02-27T00:09:31.700Z,28.35
2023-02-27T00:11:58.282Z,27.73
2023-02-27T00:14:24.834Z,29.35
2023-02-27T00:16:51.675Z,26.33
2023-02-27T00:19:18.289Z,26.55
2023-02-27T00:21:44.838Z,27.67
2023-02-27T00:24:11.780Z,26.95
2023-02-27T00:26:38.431Z,23.95
2023-02-27T00:29:06.293Z,23.23
2023-02-27T00:31:33.118Z,24.80
2023-02-27T00:33:59.614Z,23.27
2023-02-27T00:36:26.142Z,23.17
2023-02-27T00:38:52.682Z,24.73
2023-02-27T00:41:19.232Z,21.73
2023-02-27T00:43:45.736Z,22.63
2023-02-27T00:46:12.363Z,20.98
2023-02-27T00:48:38.872Z,20.52
2023-02-27T00:51:05.670Z,20.83
2023-02-27T00:53:32.182Z,20.30
2023-02-27T00:55:58.668Z,19.23
2023-02-27T00:58:25.202Z,20.05
2023-02-27T01:00:51.774Z,18.52
2023-02-27T01:03:18.326Z,16.98
2023-02-27T01:05:44.820Z,17.90
2023-02-27T01:08:11.431Z,18.40
2023-02-27T01:10:38.148Z,18.15
2023-02-27T01:13:04.686Z,18.17
2023-02-27T01:15:31.212Z,17.30
2023-02-27T01:17:57.734Z,18.27
2023-02-27T01:20:24.247Z,16.67
2023-02-27T01:22:50.762Z,15.63
2023-02-27T01:25:17.365Z,14.00
2023-02-27T01:27:43.919Z,16.83
2023-02-27T01:30:15.706Z,16.02
2023-02-27T01:32:42.642Z,14.93
2023-02-27T01:35:09.518Z,14.25
2023-02-27T01:37:36.054Z,14.23
2023-02-27T01:40:03.038Z,16.90
2023-02-27T01:42:29.653Z,14.20
2023-02-27T01:45:11.855Z,13.45
2023-02-27T01:47:41.880Z,11.55
2023-02-27T01:50:10.332Z,14.95
2023-02-27T01:52:38.792Z,12.35
2023-02-27T01:55:08.588Z,12.77
2023-02-27T01:57:36.407Z,12.05
2023-02-27T02:00:04.559Z,13.68
2023-02-27T02:02:42.132Z,13.77
2023-02-27T02:05:09.708Z,13.00
2023-02-27T02:07:38.508Z,12.60
2023-02-27T02:10:06.332Z,12.18
2023-02-27T02:12:36.045Z,11.35
2023-02-27T02:15:03.362Z,10.82
2023-02-27T02:17:43.905Z,11.32
2023-02-27T02:20:28.466Z,10.80
2023-02-27T02:23:00.793Z,15.38
2023-02-27T02:26:02.754Z,9.95
2023-02-27T02:29:05.347Z,9.75
2023-02-27T02:31:54.686Z,9.70
2023-02-27T02:34:33.439Z,9.63
2023-02-27T02:37:18.789Z,9.98
2023-02-27T02:40:11.333Z,8.45
2023-02-27T02:43:08.530Z,10.23
2023-02-27T02:45:48.336Z,8.07
2023-02-27T02:48:26.531Z,9.93
2023-02-27T02:51:26.817Z,9.43
2023-02-27T02:53:59.532Z,9.63
2023-02-27T02:56:51.372Z,7.68
2023-02-27T02:59:36.718Z,8.35
2023-02-27T03:02:10.755Z,7.80
2023-02-27T03:04:49.623Z,8.43
2023-02-27T03:07:30.255Z,9.50
2023-02-27T03:10:20.952Z,8.60
2023-02-27T03:12:57.269Z,8.75
2023-02-27T03:15:33.639Z,6.28
2023-02-27T03:18:08.920Z,8.38
2023-02-27T03:20:42.788Z,6.68
2023-02-27T03:23:14.461Z,6.47
2023-02-27T03:25:46.152Z,7.03
2023-02-27T03:28:19.099Z,7.03
2023-02-27T03:30:54.767Z,6.93
2023-02-27T03:33:39.330Z,7.18
2023-02-27T03:36:43.095Z,8.07
2023-02-27T03:39:23.864Z,8.20
2023-02-27T03:42:22.611Z,7.50
2023-02-27T03:44:55.038Z,6.80
2023-02-27T03:47:21.933Z,6.78
2023-02-27T03:49:51.135Z,7.10
2023-02-27T03:52:22.410Z,6.80
2023-02-27T03:54:56.860Z,11.48
2023-02-27T03:57:23.567Z,6.65
2023-02-27T03:59:50.296Z,5.93
2023-02-27T04:02:17.043Z,6.68
2023-02-27T04:04:43.575Z,4.30
2023-02-27T04:07:38.099Z,6.82
2023-02-27T04:10:29.618Z,4.90
2023-02-27T04:13:11.277Z,4.78
2023-02-27T04:16:00.738Z,4.95
2023-02-27T04:18:54.735Z,7.57
2023-02-27T04:21:47.287Z,6.47
2023-02-27T04:24:46.192Z,5.85
2023-02-27T04:27:26.629Z,5.53
2023-02-27T04:30:06.268Z,5.25
2023-02-27T04:32:39.396Z,5.22
2023-02-27T04:35:15.864Z,6.90
2023-02-27T04:38:00.800Z,4.70
2023-02-27T04:40:42.611Z,3.85
2023-02-27T04:43:12.367Z,5.65
2023-02-27T04:45:41.473Z,4.47
2023-02-27T04:48:20.200Z,5.00
2023-02-27T04:51:11.351Z,5.03
2023-02-27T04:53:47.635Z,4.05
2023-02-27T04:56:19.296Z,4.53
2023-02-27T04:58:51.967Z,6.38
2023-02-27T05:01:24.472Z,5.63
2023-02-27T05:03:54.384Z,4.65
2023-02-27T05:06:25.609Z,5.68
2023-02-27T05:09:04.718Z,4.03
2023-02-27T05:11:56.732Z,4.95
2023-02-27T05:14:30.317Z,3.67
2023-02-27T05:17:07.883Z,4.05
2023-02-27T05:19:38.411Z,6.20
2023-02-27T05:22:26.248Z,9.13
2023-02-27T05:25:17.402Z,13.93
2023-02-27T05:27:50.645Z,17.02
2023-02-27T05:30:38.127Z,17.73
2023-02-27T05:33:20.820Z,16.05
2023-02-27T05:35:55.003Z,18.15
2023-02-27T05:38:38.953Z,18.67
2023-02-27T05:41:11.610Z,20.25
2023-02-27T05:43:44.484Z,22.45
2023-02-27T05:46:16.047Z,22.30
2023-02-27T05:48:47.641Z,23.15
2023-02-27T05:51:16.976Z,18.95
2023-02-27T05:53:50.976Z,20.00
2023-02-27T05:56:22.179Z,21.90
2023-02-27T05:58:55.990Z,19.33
2023-02-27T06:03:48.957Z,19.75
2023-02-27T06:06:19.502Z,19.58
2023-02-27T06:08:46.294Z,20.02
2023-02-27T06:11:13.232Z,20.05
2023-02-27T06:13:41.961Z,20.23
2023-02-27T06:16:12.698Z,18.83
2023-02-27T06:18:39.593Z,15.85
2023-02-27T06:21:06.492Z,18.80
2023-02-27T06:23:32.988Z,18.75
2023-02-27T06:25:59.643Z,17.75
2023-02-27T06:28:26.417Z,17.05
2023-02-27T06:30:54.599Z,16.38
2023-02-27T06:33:21.071Z,17.55
2023-02-27T06:35:48.963Z,20.85
2023-02-27T06:38:15.779Z,18.13
2023-02-27T06:40:42.577Z,16.90
2023-02-27T06:43:09.340Z,16.02
2023-02-27T06:45:36.069Z,14.55
2023-02-27T06:48:02.789Z,18.33
2023-02-27T06:50:29.548Z,14.23
2023-02-27T06:52:56.075Z,19.85
2023-02-27T06:55:24.911Z,14.68
2023-02-27T06:57:51.548Z,17.63
2023-02-27T07:00:18.530Z,14.55
2023-02-27T07:02:45.062Z,14.77
2023-02-27T07:05:12.173Z,12.80
2023-02-27T07:07:39.432Z,12.15
2023-02-27T07:10:08.087Z,12.45
2023-02-27T07:12:34.938Z,10.68
2023-02-27T07:15:01.495Z,10.88
2023-02-27T07:17:28.083Z,10.18
2023-02-27T07:19:54.660Z,14.88
2023-02-27T07:22:21.249Z,12.80
2023-02-27T07:24:47.883Z,15.02
2023-02-27T07:27:14.363Z,12.93
2023-02-27T07:29:40.909Z,15.90
2023-02-27T07:32:07.520Z,12.70
2023-02-27T07:34:34.739Z,14.25
2023-02-27T07:37:01.246Z,11.90
2023-02-27T07:39:27.748Z,14.23
2023-02-27T07:41:54.259Z,11.13
2023-02-27T07:44:20.818Z,12.48
2023-02-27T07:46:47.694Z,11.45
2023-02-27T07:49:14.290Z,12.05
2023-02-27T07:51:40.811Z,10.70
2023-02-27T07:54:07.399Z,11.68
2023-02-27T07:56:34.460Z,12.98
2023-02-27T07:59:00.956Z,11.20
2023-02-27T08:01:27.498Z,12.45
2023-02-27T08:03:55.082Z,11.75
2023-02-27T08:06:21.856Z,13.20
2023-02-27T08:08:48.404Z,10.75
2023-02-27T08:11:15.571Z,10.50
2023-02-27T08:13:59.525Z,12.30
2023-02-27T08:16:27.288Z,13.20
2023-02-27T08:18:54.280Z,11.57
2023-02-27T08:21:20.768Z,11.52
2023-02-27T08:23:47.568Z,9.85
2023-02-27T08:26:14.150Z,9.93
2023-02-27T08:28:40.828Z,12.40
2023-02-27T08:31:07.474Z,9.82
2023-02-27T08:33:34.657Z,10.05
2023-02-27T08:36:01.240Z,11.73
2023-02-27T08:38:27.905Z,12.27
2023-02-27T08:40:54.479Z,9.93
2023-02-27T08:43:24.198Z,7.57
2023-02-27T08:45:51.675Z,10.30
2023-02-27T08:48:18.815Z,7.78
2023-02-27T08:50:46.269Z,10.10
2023-02-27T08:53:13.113Z,9.27
2023-02-27T08:55:39.603Z,9.20
2023-02-27T08:58:06.252Z,8.90
2023-02-27T09:00:32.971Z,6.55
2023-02-27T09:03:00.566Z,7.05
2023-02-27T09:05:28.487Z,10.98
2023-02-27T09:07:55.022Z,8.63
2023-02-27T09:10:21.654Z,6.35
2023-02-27T09:12:49.314Z,10.95
2023-02-27T09:15:16.724Z,6.93
2023-02-27T09:17:43.314Z,6.88
2023-02-27T09:20:10.836Z,6.32
2023-02-27T09:22:38.137Z,8.18
2023-02-27T09:25:05.492Z,6.80
2023-02-27T09:27:32.027Z,5.10
2023-02-27T09:29:59.265Z,7.82
2023-02-27T09:32:27.213Z,5.47
2023-02-27T09:34:53.904Z,7.55
2023-02-27T09:37:20.483Z,5.60
2023-02-27T09:39:47.389Z,6.95
2023-02-27T09:42:22.278Z,5.85
2023-02-27T09:45:05.861Z,6.40
2023-02-27T09:47:39.684Z,6.07
2023-02-27T09:50:39.363Z,5.65
2023-02-27T09:53:14.548Z,5.68
2023-02-27T09:55:42.694Z,5.55
2023-02-27T09:58:42.166Z,5.45
2023-02-27T10:01:16.503Z,7.00
2023-02-27T10:03:55.240Z,5.18
2023-02-27T10:06:27.105Z,7.65
2023-02-27T10:09:16.390Z,4.72
2023-02-27T10:11:53.279Z,5.70
2023-02-27T10:14:27.086Z,4.97
2023-02-27T10:16:54.586Z,5.45
2023-02-27T10:19:28.683Z,5.00
2023-02-27T10:21:58.157Z,4.40
2023-02-27T10:24:37.411Z,5.13
2023-02-27T10:27:07.710Z,7.53
2023-02-27T10:29:41.644Z,3.35
2023-02-27T10:32:11.016Z,4.30
2023-02-27T10:34:41.309Z,4.35
2023-02-27T10:37:13.210Z,4.28
2023-02-27T10:39:47.765Z,5.40
2023-02-27T10:42:16.281Z,3.85
2023-02-27T10:44:42.853Z,3.63
2023-02-27T10:47:15.694Z,4.18
2023-02-27T10:49:43.131Z,3.50
2023-02-27T10:52:14.849Z,4.88
2023-02-27T10:54:42.629Z,3.97
2023-02-27T10:57:26.799Z,4.03
2023-02-27T10:59:56.231Z,3.38
2023-02-27T11:02:26.817Z,3.80
2023-02-27T11:04:55.855Z,3.42
2023-02-27T11:07:34.946Z,3.50
2023-02-27T11:10:18.519Z,3.58
2023-02-27T11:13:18.643Z,3.28
2023-02-27T11:16:03.151Z,6.07
2023-02-27T11:18:30.756Z,3.55
2023-02-27T11:21:27.448Z,3.22
2023-02-27T11:24:07.708Z,2.33
2023-02-27T11:26:53.246Z,2.70
2023-02-27T11:29:20.387Z,2.75
2023-02-27T11:32:00.344Z,3.67
2023-02-27T11:34:34.545Z,4.13
2023-02-27T11:37:05.941Z,3.00
2023-02-27T11:39:47.909Z,3.05
2023-02-27T11:42:26.040Z,4.38
2023-02-27T11:45:07.007Z,3.75
2023-02-27T11:47:37.675Z,2.08
2023-02-27T11:50:36.237Z,3.00
2023-02-27T11:53:33.134Z,1.50
2023-02-27T11:56:03.474Z,1.65
2023-02-27T11:58:40.987Z,3.45
2023-02-27T12:01:15.818Z,2.00
2023-02-27T12:03:54.992Z,2.33
2023-02-27T12:06:27.427Z,2.53
2023-02-27T12:09:06.079Z,2.33
2023-02-27T12:11:40.939Z,1.95
2023-02-27T12:14:28.534Z,2.08
2023-02-27T12:17:06.893Z,1.30
2023-02-27T12:19:42.128Z,3.00
2023-02-27T12:22:21.066Z,1.83
2023-02-27T12:24:52.526Z,2.17
2023-02-27T12:27:44.999Z,2.22
2023-02-27T12:30:28.010Z,2.15
2023-02-27T12:33:08.080Z,3.25
2023-02-27T12:35:34.610Z,2.15
2023-02-27T12:38:02.716Z,1.60
2023-02-27T12:40:50.584Z,1.17
2023-02-27T12:43:44.220Z,1.70
2023-02-27T12:46:21.226Z,2.38
2023-02-27T12:49:11.354Z,1.20
2023-02-27T12:51:38.079Z,2.28
2023-02-27T12:54:20.208Z,3.20
2023-02-27T12:57:14.118Z,3.40
2023-02-27T12:59:57.583Z,0.80
2023-02-27T13:03:01.681Z,1.52
2023-02-27T13:05:43.185Z,1.10
2023-02-27T13:08:55.683Z,2.78
2023-02-27T13:11:51.039Z,1.48
2023-02-27T13:14:29.479Z,1.52
2023-02-27T13:17:16.917Z,1.23
2023-02-27T13:20:02.938Z,1.33
2023-02-27T13:22:47.647Z,1.98
2023-02-27T13:25:15.990Z,2.15
2023-02-27T13:27:47.987Z,2.38
2023-02-27T13:30:35.218Z,1.42
2023-02-27T13:33:21.479Z,2.80
2023-02-27T13:36:27.053Z,1.55
2023-02-27T13:38:55.218Z,2.30
2023-02-27T13:41:24.598Z,2.15
2023-02-27T13:43:53.337Z,1.73
2023-02-27T13:46:25.998Z,1.48
2023-02-27T13:49:04.833Z,2.03
2023-02-27T13:51:43.390Z,0.95
2023-02-27T13:54:16.051Z,1.85
2023-02-27T13:56:48.218Z,1.35
2023-02-27T13:59:23.676Z,1.33
2023-02-27T14:01:59.986Z,1.88
2023-02-27T14:04:30.232Z,1.85
2023-02-27T14:07:06.866Z,2.67
2023-02-27T14:09:39.454Z,2.05
2023-02-27T14:12:28.878Z,1.70
2023-02-27T14:14:58.977Z,2.40
2023-02-27T14:17:37.891Z,2.70
2023-02-27T14:20:27.429Z,1.08
2023-02-27T14:23:16.092Z,1.27
2023-02-27T14:25:54.745Z,0.90
2023-02-27T14:28:33.963Z,2.88
2023-02-27T14:31:03.738Z,2.58
2023-02-27T14:33:41.348Z,0.73
2023-02-27T14:36:15.384Z,1.38
2023-02-27T14:38:42.048Z,1.05
2023-02-27T14:41:31.897Z,1.55
2023-02-27T14:43:59.161Z,1.00
2023-02-27T14:46:39.763Z,1.13
2023-02-27T14:49:17.966Z,1.90
2023-02-27T14:51:44.599Z,1.50
2023-02-27T14:54:21.457Z,1.95
2023-02-27T14:57:05.247Z,1.73
2023-02-27T14:59:40.792Z,1.33
2023-02-27T15:02:23.099Z,1.48
2023-02-27T15:05:00.734Z,0.82
2023-02-27T15:07:30.280Z,2.45
2023-02-27T15:10:02.603Z,1.52
2023-02-27T15:12:31.902Z,2.55
2023-02-27T15:15:02.410Z,2.95
2023-02-27T15:17:38.871Z,1.27
2023-02-27T15:20:22.256Z,1.10
2023-02-27T15:22:48.841Z,1.42
2023-02-27T15:25:28.919Z,2.30
2023-02-27T15:28:03.259Z,1.00
2023-02-27T15:30:30.887Z,2.70
2023-02-27T15:32:58.299Z,0.98
2023-02-27T15:35:30.820Z,1.08
2023-02-27T15:37:59.010Z,0.77
2023-02-27T15:40:31.232Z,1.75
2023-02-27T15:42:59.067Z,1.55
2023-02-27T15:45:30.367Z,1.95
2023-02-27T15:47:57.146Z,1.67
2023-02-27T15:50:37.332Z,1.05
2023-02-27T15:53:24.413Z,1.88
2023-02-27T15:55:55.535Z,1.00
2023-02-27T15:58:29.729Z,3.10
2023-02-27T16:01:07.284Z,1.20
2023-02-27T16:03:39.640Z,1.13
2023-02-27T16:06:18.231Z,1.45
2023-02-27T16:09:06.835Z,1.73
2023-02-27T16:11:36.034Z,1.33
2023-02-27T16:14:04.094Z,1.13
2023-02-27T16:16:37.487Z,1.27
2023-02-27T16:19:27.006Z,1.23
2023-02-27T16:22:07.094Z,2.33
2023-02-27T16:24:33.898Z,3.20
2023-02-27T16:27:01.820Z,1.75
2023-02-27T16:29:39.763Z,1.90
2023-02-27T16:32:06.463Z,3.03
2023-02-27T16:34:45.596Z,3.47
2023-02-27T16:37:38.395Z,4.70
2023-02-27T16:40:20.046Z,4.47
2023-02-27T16:42:46.722Z,4.30
2023-02-27T16:45:31.972Z,5.03
2023-02-27T16:48:00.285Z,4.85
2023-02-27T16:50:28.921Z,4.38
2023-02-27T16:52:56.111Z,4.95
2023-02-27T16:55:23.259Z,4.97
2023-02-27T16:57:49.781Z,5.35
2023-02-27T17:00:18.025Z,4.78
2023-02-27T17:02:46.621Z,4.53
2023-02-27T17:05:15.179Z,6.18
2023-02-27T17:07:42.135Z,6.22
2023-02-27T17:10:11.734Z,4.43
2023-02-27T17:12:39.095Z,5.95
2023-02-27T17:15:06.179Z,6.53
2023-02-27T17:17:32.730Z,5.30
2023-02-27T17:19:59.322Z,5.07
2023-02-27T17:22:25.895Z,5.55
2023-02-27T17:24:52.494Z,6.18
2023-02-27T17:27:18.975Z,6.75
2023-02-27T17:29:45.511Z,6.05
2023-02-27T17:32:12.176Z,7.10
2023-02-27T17:34:38.846Z,6.63
2023-02-27T17:37:05.405Z,6.85
2023-02-27T17:39:33.437Z,13.57
2023-02-27T17:41:59.995Z,13.73
2023-02-27T17:44:27.018Z,19.60
2023-02-27T17:46:53.586Z,22.30
2023-02-27T17:49:20.153Z,22.13
2023-02-27T17:51:46.946Z,22.73
2023-02-27T17:54:13.482Z,18.80
2023-02-27T17:56:39.973Z,21.00
2023-02-27T17:59:08.170Z,20.50
2023-02-27T18:01:35.716Z,22.08
2023-02-27T18:04:02.320Z,21.65
2023-02-27T18:06:29.239Z,22.83
2023-02-27T18:08:55.974Z,19.58
2023-02-27T18:11:23.150Z,22.52
2023-02-27T18:13:50.481Z,19.58
2023-02-27T18:16:17.754Z,22.05
2023-02-27T18:18:44.361Z,21.95
2023-02-27T18:21:16.733Z,22.50
2023-02-27T18:23:44.137Z,18.55
2023-02-27T18:26:29.925Z,18.60
2023-02-27T18:29:07.148Z,18.33
2023-02-27T18:31:36.879Z,16.20
2023-02-27T18:34:04.188Z,16.85
2023-02-27T18:36:31.418Z,16.52
2023-02-27T18:38:58.974Z,16.77
2023-02-27T18:41:25.570Z,17.60
2023-02-27T18:43:52.051Z,18.17
2023-02-27T18:46:18.723Z,14.20
2023-02-27T18:48:46.170Z,16.38
2023-02-27T18:51:15.482Z,13.95
2023-02-27T18:53:45.885Z,15.40
2023-02-27T18:56:14.394Z,16.38
2023-02-27T18:58:40.968Z,21.17
2023-02-27T19:01:08.491Z,20.10
2023-02-27T19:03:35.930Z,22.52
2023-02-27T19:06:02.756Z,26.08
2023-02-27T19:08:29.286Z,25.85
2023-02-27T19:10:57.184Z,30.85
2023-02-27T19:13:25.225Z,26.10
2023-02-27T19:15:52.791Z,28.38
2023-02-27T19:18:19.638Z,29.88
2023-02-27T19:20:46.359Z,29.63
2023-02-27T19:23:12.900Z,29.88
2023-02-27T19:25:39.516Z,32.13
2023-02-27T19:28:06.426Z,31.38
2023-02-27T19:30:32.957Z,31.70
2023-02-27T19:32:59.598Z,29.42
2023-02-27T19:35:26.394Z,31.02
2023-02-27T19:37:58.012Z,33.25
2023-02-27T19:40:26.195Z,28.83
2023-02-27T19:42:52.957Z,27.92
2023-02-27T19:45:19.524Z,29.95
2023-02-27T19:47:46.720Z,28.33
2023-02-27T19:50:13.423Z,26.73
2023-02-27T19:52:40.344Z,30.60
2023-02-27T19:55:07.515Z,27.52
2023-02-27T19:57:35.452Z,25.80
2023-02-27T20:00:01.995Z,23.83
2023-02-27T20:02:29.097Z,27.63
2023-02-27T20:04:55.698Z,24.50
2023-02-27T20:07:22.778Z,25.60
2023-02-27T20:09:49.821Z,28.15
2023-02-27T20:12:16.414Z,28.30
2023-02-27T20:14:42.979Z,30.10
2023-02-27T20:17:09.950Z,31.95
2023-02-27T20:19:36.497Z,32.05
2023-02-27T20:22:03.799Z,34.85
2023-02-27T20:24:30.311Z,35.45
2023-02-27T20:26:59.155Z,36.00
2023-02-27T20:29:27.104Z,33.83
2023-02-27T20:31:55.715Z,33.60
2023-02-27T20:34:26.221Z,33.15
2023-02-27T20:36:54.812Z,38.22
2023-02-27T20:39:22.346Z,35.75
2023-02-27T20:41:48.962Z,35.22
2023-02-27T20:44:15.597Z,34.22
2023-02-27T20:46:43.542Z,35.22
2023-02-27T20:49:11.876Z,32.65
2023-02-27T20:51:39.583Z,34.85
2023-02-27T20:54:09.009Z,37.40
2023-02-27T20:56:38.360Z,39.67
2023-02-27T20:59:06.895Z,40.80
2023-02-27T21:01:33.780Z,39.40
2023-02-27T21:04:00.975Z,42.95
2023-02-27T21:06:27.649Z,42.03
2023-02-27T21:08:56.407Z,46.55
2023-02-27T21:11:29.415Z,51.33
2023-02-27T21:13:57.996Z,52.10
2023-02-27T21:16:27.693Z,49.45
2023-02-27T21:18:56.658Z,49.25
2023-02-27T21:21:30.581Z,43.88
2023-02-27T21:23:57.588Z,48.97
2023-02-27T21:26:34.983Z,45.08
2023-02-27T21:29:08.607Z,44.97
2023-02-27T21:31:36.764Z,44.83
2023-02-27T21:34:06.927Z,46.30
2023-02-27T21:36:36.956Z,42.85
2023-02-27T21:39:06.384Z,46.70
2023-02-27T21:41:34.646Z,44.85
2023-02-27T21:44:04.684Z,48.83
2023-02-27T21:46:32.767Z,43.78
2023-02-27T21:48:59.798Z,40.17
2023-02-27T21:51:39.532Z,40.60
2023-02-27T21:54:09.815Z,40.92
2023-02-27T21:56:36.557Z,39.42
2023-02-27T21:59:04.225Z,41.97
2023-02-27T22:01:31.276Z,39.25
2023-02-27T22:03:58.491Z,39.33
2023-02-27T22:06:28.275Z,41.45
2023-02-27T22:08:56.555Z,41.47
2023-02-27T22:11:24.445Z,38.63
2023-02-27T22:13:51.357Z,38.53
2023-02-27T22:16:19.000Z,37.58
2023-02-27T22:18:45.979Z,37.80
2023-02-27T22:21:17.380Z,39.58
2023-02-27T22:23:44.905Z,37.30
2023-02-27T22:26:14.463Z,37.95
2023-02-27T22:28:41.755Z,34.65
2023-02-27T22:31:13.916Z,34.35
2023-02-27T22:33:42.703Z,35.50
2023-02-27T22:36:29.403Z,33.80
2023-02-27T22:38:56.515Z,34.58
2023-02-27T22:41:26.319Z,36.10
2023-02-27T22:43:53.041Z,30.88
2023-02-27T22:46:31.476Z,33.80
2023-02-27T22:49:00.675Z,32.22
2023-02-27T22:51:28.656Z,32.58
2023-02-27T22:54:00.588Z,29.48
2023-02-27T22:56:29.522Z,32.83
2023-02-27T22:58:56.398Z,30.73
2023-02-27T23:01:26.016Z,33.33
2023-02-27T23:03:55.909Z,32.38
2023-02-27T23:06:27.758Z,32.10
2023-02-27T23:08:54.450Z,28.83
2023-02-27T23:11:21.693Z,30.45
2023-02-27T23:13:48.692Z,28.42
2023-02-27T23:16:15.368Z,30.35
2023-02-27T23:18:48.371Z,30.40
2023-02-27T23:21:17.269Z,29.35
2023-02-27T23:23:44.343Z,27.98
2023-02-27T23:26:11.813Z,29.20
2023-02-27T23:28:38.823Z,26.83
2023-02-27T23:31:06.495Z,28.33
2023-02-27T23:33:33.390Z,30.00
2023-02-27T23:36:01.347Z,27.33
2023-02-27T23:38:29.117Z,25.75
2023-02-27T23:40:56.106Z,25.15
2023-02-27T23:43:41.616Z,25.80
2023-02-27T23:46:10.268Z,26.05
2023-02-27T23:48:37.825Z,26.63
2023-02-27T23:51:05.895Z,24.02
2023-02-27T23:53:34.106Z,21.13
2023-02-27T23:56:00.926Z,22.58
2023-02-27T23:58:27.698Z,24.88
